sensor_id;sensor_type;location;lat;lon;timestamp;pressure;altitude;pressure_sealevel;temperature;humidity
48968;BME280;46511;53.148;8.204;2023-04-08T00:02:20;102377.13;;;6.81;100.00
48968;BME280;46511;53.148;8.204;2023-04-08T00:04:51;102371.69;;;6.90;100.00
48968;BME280;46511;53.148;8.204;2023-04-08T00:07:23;102378.72;;;6.91;100.00
48968;BME280;46511;53.148;8.204;2023-04-08T00:09:54;102380.34;;;7.01;100.00
48968;BME280;46511;53.148;8.204;2023-04-08T00:12:26;102376.69;;;7.08;100.00
48968;BME280;46511;53.148;8.204;2023-04-08T00:14:57;102382.69;;;7.18;100.00
48968;BME280;46511;53.148;8.204;2023-04-08T00:17:29;102381.59;;;7.31;100.00
48968;BME280;46511;53.148;8.204;2023-04-08T00:20:00;102376.03;;;7.45;100.00
48968;BME280;46511;53.148;8.204;2023-04-08T00:22:31;102386.44;;;7.54;100.00
48968;BME280;46511;53.148;8.204;2023-04-08T00:25:03;102379.25;;;7.62;100.00
48968;BME280;46511;53.148;8.204;2023-04-08T00:27:36;102381.00;;;7.63;100.00
48968;BME280;46511;53.148;8.204;2023-04-08T00:30:07;102386.63;;;7.45;100.00
48968;BME280;46511;53.148;8.204;2023-04-08T00:32:40;102374.53;;;7.77;100.00
48968;BME280;46511;53.148;8.204;2023-04-08T00:35:11;102378.72;;;7.90;100.00
48968;BME280;46511;53.148;8.204;2023-04-08T00:37:42;102382.00;;;8.01;100.00
48968;BME280;46511;53.148;8.204;2023-04-08T00:40:14;102378.38;;;8.05;100.00
48968;BME280;46511;53.148;8.204;2023-04-08T00:42:45;102377.53;;;8.03;100.00
48968;BME280;46511;53.148;8.204;2023-04-08T00:45:17;102383.75;;;8.02;100.00
48968;BME280;46511;53.148;8.204;2023-04-08T00:47:48;102383.38;;;8.20;100.00
48968;BME280;46511;53.148;8.204;2023-04-08T00:50:22;102383.31;;;7.80;100.00
48968;BME280;46511;53.148;8.204;2023-04-08T00:52:53;102385.44;;;8.06;100.00
48968;BME280;46511;53.148;8.204;2023-04-08T00:55:24;102383.91;;;7.96;100.00
48968;BME280;46511;53.148;8.204;2023-04-08T00:57:56;102388.84;;;8.11;100.00
48968;BME280;46511;53.148;8.204;2023-04-08T01:00:28;102383.03;;;7.94;100.00
48968;BME280;46511;53.148;8.204;2023-04-08T01:05:55;102387.50;;;8.35;100.00
48968;BME280;46511;53.148;8.204;2023-04-08T01:08:34;102389.66;;;8.15;100.00
48968;BME280;46511;53.148;8.204;2023-04-08T01:11:10;102393.00;;;8.23;100.00
48968;BME280;46511;53.148;8.204;2023-04-08T01:13:43;102387.22;;;8.04;100.00
48968;BME280;46511;53.148;8.204;2023-04-08T01:16:16;102388.63;;;8.22;100.00
48968;BME280;46511;53.148;8.204;2023-04-08T01:18:48;102388.97;;;8.05;100.00
48968;BME280;46511;53.148;8.204;2023-04-08T01:21:21;102386.75;;;8.27;100.00
48968;BME280;46511;53.148;8.204;2023-04-08T01:24:00;102384.75;;;8.40;100.00
48968;BME280;46511;53.148;8.204;2023-04-08T01:26:48;102379.81;;;8.63;100.00
48968;BME280;46511;53.148;8.204;2023-04-08T01:29:19;102382.59;;;8.57;100.00
48968;BME280;46511;53.148;8.204;2023-04-08T01:31:51;102384.56;;;8.47;100.00
48968;BME280;46511;53.148;8.204;2023-04-08T01:34:24;102380.22;;;8.45;100.00
48968;BME280;46511;53.148;8.204;2023-04-08T01:36:56;102390.56;;;8.55;100.00
48968;BME280;46511;53.148;8.204;2023-04-08T01:39:28;102389.16;;;8.39;100.00
48968;BME280;46511;53.148;8.204;2023-04-08T01:42:00;102397.97;;;8.40;100.00
48968;BME280;46511;53.148;8.204;2023-04-08T01:44:28;102392.75;;;8.37;100.00
48968;BME280;46511;53.148;8.204;2023-04-08T01:47:00;102396.63;;;8.19;100.00
48968;BME280;46511;53.148;8.204;2023-04-08T01:49:33;102401.94;;;8.19;100.00
48968;BME280;46511;53.148;8.204;2023-04-08T01:52:06;102399.88;;;7.90;100.00
48968;BME280;46511;53.148;8.204;2023-04-08T01:54:39;102406.09;;;8.30;100.00
48968;BME280;46511;53.148;8.204;2023-04-08T01:57:11;102407.22;;;8.19;100.00
48968;BME280;46511;53.148;8.204;2023-04-08T01:59:47;102404.34;;;8.29;100.00
48968;BME280;46511;53.148;8.204;2023-04-08T02:02:21;102402.88;;;8.16;100.00
48968;BME280;46511;53.148;8.204;2023-04-08T02:04:56;102401.13;;;8.15;100.00
48968;BME280;46511;53.148;8.204;2023-04-08T02:07:28;102407.81;;;8.31;100.00
48968;BME280;46511;53.148;8.204;2023-04-08T02:09:59;102403.88;;;8.11;100.00
48968;BME280;46511;53.148;8.204;2023-04-08T02:12:31;102405.16;;;8.35;100.00
48968;BME280;46511;53.148;8.204;2023-04-08T02:15:03;102403.00;;;8.10;100.00
48968;BME280;46511;53.148;8.204;2023-04-08T02:20:15;102409.75;;;8.23;100.00
48968;BME280;46511;53.148;8.204;2023-04-08T02:22:58;102406.16;;;8.27;100.00
48968;BME280;46511;53.148;8.204;2023-04-08T02:25:36;102407.75;;;8.38;100.00
48968;BME280;46511;53.148;8.204;2023-04-08T02:28:05;102414.56;;;8.06;100.00
48968;BME280;46511;53.148;8.204;2023-04-08T02:30:43;102412.84;;;8.02;100.00
48968;BME280;46511;53.148;8.204;2023-04-08T02:33:20;102411.91;;;8.06;100.00
48968;BME280;46511;53.148;8.204;2023-04-08T02:35:53;102413.41;;;8.19;100.00
48968;BME280;46511;53.148;8.204;2023-04-08T02:38:25;102411.84;;;8.09;100.00
48968;BME280;46511;53.148;8.204;2023-04-08T02:40:59;102412.22;;;8.34;100.00
48968;BME280;46511;53.148;8.204;2023-04-08T02:43:30;102420.66;;;8.51;100.00
48968;BME280;46511;53.148;8.204;2023-04-08T02:46:02;102410.75;;;8.61;100.00
48968;BME280;46511;53.148;8.204;2023-04-08T02:48:33;102411.09;;;8.46;100.00
48968;BME280;46511;53.148;8.204;2023-04-08T02:51:05;102415.44;;;8.48;100.00
48968;BME280;46511;53.148;8.204;2023-04-08T02:53:36;102414.78;;;8.39;100.00
48968;BME280;46511;53.148;8.204;2023-04-08T02:56:10;102415.59;;;8.41;100.00
48968;BME280;46511;53.148;8.204;2023-04-08T02:58:41;102417.19;;;8.49;100.00
48968;BME280;46511;53.148;8.204;2023-04-08T03:01:13;102416.34;;;8.47;100.00
48968;BME280;46511;53.148;8.204;2023-04-08T03:03:44;102413.47;;;8.16;100.00
48968;BME280;46511;53.148;8.204;2023-04-08T03:06:15;102412.84;;;8.47;100.00
48968;BME280;46511;53.148;8.204;2023-04-08T03:08:46;102424.53;;;8.37;100.00
48968;BME280;46511;53.148;8.204;2023-04-08T03:11:18;102422.78;;;8.36;100.00
48968;BME280;46511;53.148;8.204;2023-04-08T03:13:49;102427.19;;;8.34;100.00
48968;BME280;46511;53.148;8.204;2023-04-08T03:16:20;102429.16;;;8.25;100.00
48968;BME280;46511;53.148;8.204;2023-04-08T03:18:52;102428.09;;;8.32;100.00
48968;BME280;46511;53.148;8.204;2023-04-08T03:21:23;102428.13;;;8.31;100.00
48968;BME280;46511;53.148;8.204;2023-04-08T03:23:54;102432.47;;;8.37;100.00
48968;BME280;46511;53.148;8.204;2023-04-08T03:26:26;102425.38;;;8.39;100.00
48968;BME280;46511;53.148;8.204;2023-04-08T03:28:57;102427.97;;;8.40;100.00
48968;BME280;46511;53.148;8.204;2023-04-08T03:31:28;102429.00;;;8.31;100.00
48968;BME280;46511;53.148;8.204;2023-04-08T03:33:59;102427.94;;;8.42;100.00
48968;BME280;46511;53.148;8.204;2023-04-08T03:36:31;102423.59;;;8.39;100.00
48968;BME280;46511;53.148;8.204;2023-04-08T03:39:02;102430.75;;;8.36;100.00
48968;BME280;46511;53.148;8.204;2023-04-08T03:41:28;102420.31;;;8.26;100.00
48968;BME280;46511;53.148;8.204;2023-04-08T03:44:00;102414.38;;;8.57;100.00
48968;BME280;46511;53.148;8.204;2023-04-08T03:46:32;102424.31;;;8.47;100.00
48968;BME280;46511;53.148;8.204;2023-04-08T03:49:03;102425.91;;;8.54;100.00
48968;BME280;46511;53.148;8.204;2023-04-08T03:51:34;102427.88;;;8.01;100.00
48968;BME280;46511;53.148;8.204;2023-04-08T03:54:05;102430.81;;;8.29;100.00
48968;BME280;46511;53.148;8.204;2023-04-08T03:56:37;102432.44;;;8.38;100.00
48968;BME280;46511;53.148;8.204;2023-04-08T03:59:08;102425.97;;;8.53;100.00
48968;BME280;46511;53.148;8.204;2023-04-08T04:01:40;102428.19;;;8.29;100.00
48968;BME280;46511;53.148;8.204;2023-04-08T04:04:11;102436.75;;;8.42;100.00
48968;BME280;46511;53.148;8.204;2023-04-08T04:06:42;102427.00;;;8.46;100.00
48968;BME280;46511;53.148;8.204;2023-04-08T04:09:14;102426.09;;;8.47;100.00
48968;BME280;46511;53.148;8.204;2023-04-08T04:11:46;102432.50;;;8.34;100.00
48968;BME280;46511;53.148;8.204;2023-04-08T04:14:17;102432.59;;;8.29;100.00
48968;BME280;46511;53.148;8.204;2023-04-08T04:16:49;102422.84;;;8.31;100.00
48968;BME280;46511;53.148;8.204;2023-04-08T04:19:20;102437.50;;;8.49;100.00
48968;BME280;46511;53.148;8.204;2023-04-08T04:21:51;102441.94;;;8.48;100.00
48968;BME280;46511;53.148;8.204;2023-04-08T04:24:23;102434.75;;;8.55;100.00
48968;BME280;46511;53.148;8.204;2023-04-08T04:26:54;102437.22;;;8.61;100.00
48968;BME280;46511;53.148;8.204;2023-04-08T04:29:25;102435.41;;;8.65;100.00
48968;BME280;46511;53.148;8.204;2023-04-08T04:31:57;102440.31;;;8.41;100.00
48968;BME280;46511;53.148;8.204;2023-04-08T04:34:28;102438.47;;;8.46;100.00
48968;BME280;46511;53.148;8.204;2023-04-08T04:36:59;102433.78;;;8.16;100.00
48968;BME280;46511;53.148;8.204;2023-04-08T04:39:30;102439.53;;;8.38;100.00
48968;BME280;46511;53.148;8.204;2023-04-08T04:42:02;102437.06;;;8.27;100.00
48968;BME280;46511;53.148;8.204;2023-04-08T04:44:33;102448.38;;;8.34;100.00
48968;BME280;46511;53.148;8.204;2023-04-08T04:47:04;102437.88;;;8.30;100.00
48968;BME280;46511;53.148;8.204;2023-04-08T04:49:36;102446.63;;;8.32;100.00
48968;BME280;46511;53.148;8.204;2023-04-08T04:52:07;102458.25;;;7.81;100.00
48968;BME280;46511;53.148;8.204;2023-04-08T04:54:38;102460.53;;;8.00;100.00
48968;BME280;46511;53.148;8.204;2023-04-08T04:57:09;102453.94;;;8.21;100.00
48968;BME280;46511;53.148;8.204;2023-04-08T04:59:41;102453.66;;;8.37;100.00
48968;BME280;46511;53.148;8.204;2023-04-08T05:02:12;102458.47;;;8.15;100.00
48968;BME280;46511;53.148;8.204;2023-04-08T05:04:43;102448.38;;;8.37;100.00
48968;BME280;46511;53.148;8.204;2023-04-08T05:07:15;102456.41;;;8.30;100.00
48968;BME280;46511;53.148;8.204;2023-04-08T05:09:46;102449.41;;;8.28;100.00
48968;BME280;46511;53.148;8.204;2023-04-08T05:12:18;102457.50;;;8.20;100.00
48968;BME280;46511;53.148;8.204;2023-04-08T05:14:50;102454.56;;;8.36;100.00
48968;BME280;46511;53.148;8.204;2023-04-08T05:17:21;102458.88;;;8.40;100.00
48968;BME280;46511;53.148;8.204;2023-04-08T05:19:53;102469.06;;;8.16;100.00
48968;BME280;46511;53.148;8.204;2023-04-08T05:22:24;102480.03;;;8.41;100.00
48968;BME280;46511;53.148;8.204;2023-04-08T05:24:55;102482.63;;;7.98;100.00
48968;BME280;46511;53.148;8.204;2023-04-08T05:27:26;102486.03;;;8.06;100.00
48968;BME280;46511;53.148;8.204;2023-04-08T05:29:58;102476.56;;;8.39;100.00
48968;BME280;46511;53.148;8.204;2023-04-08T05:32:29;102481.41;;;8.16;100.00
48968;BME280;46511;53.148;8.204;2023-04-08T05:35:01;102475.75;;;8.36;100.00
48968;BME280;46511;53.148;8.204;2023-04-08T05:37:35;102485.22;;;8.47;100.00
48968;BME280;46511;53.148;8.204;2023-04-08T05:40:06;102485.38;;;8.40;100.00
48968;BME280;46511;53.148;8.204;2023-04-08T05:42:38;102483.50;;;8.45;100.00
48968;BME280;46511;53.148;8.204;2023-04-08T05:45:09;102488.34;;;8.66;100.00
48968;BME280;46511;53.148;8.204;2023-04-08T05:47:41;102489.91;;;8.76;100.00
48968;BME280;46511;53.148;8.204;2023-04-08T05:50:12;102495.84;;;8.46;100.00
48968;BME280;46511;53.148;8.204;2023-04-08T05:52:43;102497.06;;;8.71;100.00
48968;BME280;46511;53.148;8.204;2023-04-08T05:55:15;102492.75;;;8.67;100.00
48968;BME280;46511;53.148;8.204;2023-04-08T05:57:46;102501.69;;;8.62;100.00
48968;BME280;46511;53.148;8.204;2023-04-08T06:00:17;102505.72;;;8.79;100.00
48968;BME280;46511;53.148;8.204;2023-04-08T06:02:49;102497.06;;;9.11;100.00
48968;BME280;46511;53.148;8.204;2023-04-08T06:05:21;102501.63;;;9.05;100.00
48968;BME280;46511;53.148;8.204;2023-04-08T06:07:52;102506.16;;;9.38;100.00
48968;BME280;46511;53.148;8.204;2023-04-08T06:10:23;102505.66;;;9.57;100.00
48968;BME280;46511;53.148;8.204;2023-04-08T06:12:55;102510.31;;;9.49;100.00
48968;BME280;46511;53.148;8.204;2023-04-08T06:15:26;102509.44;;;9.47;100.00
48968;BME280;46511;53.148;8.204;2023-04-08T06:17:57;102511.25;;;9.46;100.00
48968;BME280;46511;53.148;8.204;2023-04-08T06:20:29;102507.69;;;9.81;100.00
48968;BME280;46511;53.148;8.204;2023-04-08T06:23:00;102505.44;;;10.00;100.00
48968;BME280;46511;53.148;8.204;2023-04-08T06:25:31;102520.19;;;9.78;100.00
48968;BME280;46511;53.148;8.204;2023-04-08T06:28:02;102513.53;;;9.61;100.00
48968;BME280;46511;53.148;8.204;2023-04-08T06:30:34;102517.88;;;9.64;100.00
48968;BME280;46511;53.148;8.204;2023-04-08T06:33:06;102520.16;;;9.79;100.00
48968;BME280;46511;53.148;8.204;2023-04-08T06:35:38;102516.91;;;9.66;100.00
48968;BME280;46511;53.148;8.204;2023-04-08T06:38:10;102518.38;;;9.80;100.00
48968;BME280;46511;53.148;8.204;2023-04-08T06:40:41;102517.94;;;10.29;100.00
48968;BME280;46511;53.148;8.204;2023-04-08T06:43:12;102516.53;;;10.16;100.00
48968;BME280;46511;53.148;8.204;2023-04-08T06:45:43;102524.66;;;10.10;100.00
48968;BME280;46511;53.148;8.204;2023-04-08T06:48:14;102523.25;;;10.29;100.00
48968;BME280;46511;53.148;8.204;2023-04-08T06:50:46;102534.09;;;10.20;100.00
48968;BME280;46511;53.148;8.204;2023-04-08T06:53:17;102531.59;;;10.15;100.00
48968;BME280;46511;53.148;8.204;2023-04-08T06:55:48;102540.38;;;9.83;100.00
48968;BME280;46511;53.148;8.204;2023-04-08T06:58:20;102545.41;;;9.95;100.00
48968;BME280;46511;53.148;8.204;2023-04-08T07:00:52;102557.56;;;10.02;100.00
48968;BME280;46511;53.148;8.204;2023-04-08T07:03:25;102558.72;;;10.28;100.00
48968;BME280;46511;53.148;8.204;2023-04-08T07:05:57;102557.53;;;10.06;100.00
48968;BME280;46511;53.148;8.204;2023-04-08T07:08:28;102560.81;;;10.14;100.00
48968;BME280;46511;53.148;8.204;2023-04-08T07:10:59;102558.69;;;9.94;100.00
48968;BME280;46511;53.148;8.204;2023-04-08T07:13:31;102564.28;;;10.17;100.00
48968;BME280;46511;53.148;8.204;2023-04-08T07:16:02;102558.31;;;10.43;100.00
48968;BME280;46511;53.148;8.204;2023-04-08T07:18:33;102565.50;;;10.38;100.00
48968;BME280;46511;53.148;8.204;2023-04-08T07:21:05;102558.72;;;10.28;100.00
48968;BME280;46511;53.148;8.204;2023-04-08T07:23:37;102557.09;;;10.21;100.00
48968;BME280;46511;53.148;8.204;2023-04-08T07:26:08;102567.13;;;10.44;100.00
48968;BME280;46511;53.148;8.204;2023-04-08T07:28:39;102565.25;;;10.47;100.00
48968;BME280;46511;53.148;8.204;2023-04-08T07:31:12;102559.16;;;10.44;100.00
48968;BME280;46511;53.148;8.204;2023-04-08T07:33:45;102560.34;;;10.32;100.00
48968;BME280;46511;53.148;8.204;2023-04-08T07:36:12;102562.28;;;10.27;100.00
48968;BME280;46511;53.148;8.204;2023-04-08T07:38:44;102565.75;;;10.29;100.00
48968;BME280;46511;53.148;8.204;2023-04-08T07:41:16;102572.56;;;10.39;100.00
48968;BME280;46511;53.148;8.204;2023-04-08T07:43:47;102573.69;;;9.96;100.00
48968;BME280;46511;53.148;8.204;2023-04-08T07:46:18;102573.34;;;10.09;100.00
48968;BME280;46511;53.148;8.204;2023-04-08T07:48:50;102578.06;;;9.62;100.00
48968;BME280;46511;53.148;8.204;2023-04-08T07:51:22;102577.41;;;9.89;100.00
48968;BME280;46511;53.148;8.204;2023-04-08T07:53:53;102570.94;;;9.64;100.00
48968;BME280;46511;53.148;8.204;2023-04-08T07:56:24;102579.88;;;10.31;100.00
48968;BME280;46511;53.148;8.204;2023-04-08T07:58:56;102579.91;;;9.60;100.00
48968;BME280;46511;53.148;8.204;2023-04-08T08:01:27;102579.97;;;9.92;100.00
48968;BME280;46511;53.148;8.204;2023-04-08T08:04:01;102569.63;;;9.82;100.00
48968;BME280;46511;53.148;8.204;2023-04-08T08:06:33;102584.44;;;10.26;100.00
48968;BME280;46511;53.148;8.204;2023-04-08T08:09:04;102580.88;;;9.91;100.00
48968;BME280;46511;53.148;8.204;2023-04-08T08:11:35;102582.47;;;9.98;100.00
48968;BME280;46511;53.148;8.204;2023-04-08T08:14:07;102582.00;;;10.17;100.00
48968;BME280;46511;53.148;8.204;2023-04-08T08:16:38;102585.44;;;10.22;100.00
48968;BME280;46511;53.148;8.204;2023-04-08T08:19:09;102585.09;;;10.00;100.00
48968;BME280;46511;53.148;8.204;2023-04-08T08:21:42;102584.06;;;10.40;100.00
48968;BME280;46511;53.148;8.204;2023-04-08T08:24:13;102582.78;;;10.54;100.00
48968;BME280;46511;53.148;8.204;2023-04-08T08:26:46;102588.25;;;10.79;100.00
48968;BME280;46511;53.148;8.204;2023-04-08T08:29:19;102589.00;;;10.53;100.00
48968;BME280;46511;53.148;8.204;2023-04-08T08:31:50;102595.66;;;10.37;100.00
48968;BME280;46511;53.148;8.204;2023-04-08T08:34:21;102599.94;;;10.43;100.00
48968;BME280;46511;53.148;8.204;2023-04-08T08:36:52;102607.88;;;10.44;100.00
48968;BME280;46511;53.148;8.204;2023-04-08T08:39:24;102606.09;;;10.09;100.00
48968;BME280;46511;53.148;8.204;2023-04-08T08:41:55;102599.53;;;9.88;100.00
48968;BME280;46511;53.148;8.204;2023-04-08T08:44:27;102601.06;;;10.34;100.00
48968;BME280;46511;53.148;8.204;2023-04-08T08:47:00;102605.28;;;11.03;100.00
48968;BME280;46511;53.148;8.204;2023-04-08T08:49:31;102603.66;;;11.29;100.00
48968;BME280;46511;53.148;8.204;2023-04-08T08:52:03;102603.25;;;11.41;100.00
48968;BME280;46511;53.148;8.204;2023-04-08T08:54:34;102606.91;;;11.09;100.00
48968;BME280;46511;53.148;8.204;2023-04-08T08:57:15;102610.56;;;11.34;100.00
48968;BME280;46511;53.148;8.204;2023-04-08T08:59:47;102616.34;;;11.49;100.00
48968;BME280;46511;53.148;8.204;2023-04-08T09:02:26;102617.06;;;11.24;100.00
48968;BME280;46511;53.148;8.204;2023-04-08T09:04:59;102616.97;;;11.27;100.00
48968;BME280;46511;53.148;8.204;2023-04-08T09:07:36;102630.09;;;11.33;100.00
48968;BME280;46511;53.148;8.204;2023-04-08T09:10:10;102623.69;;;12.23;100.00
48968;BME280;46511;53.148;8.204;2023-04-08T09:12:54;102624.25;;;11.78;100.00
48968;BME280;46511;53.148;8.204;2023-04-08T09:15:26;102629.47;;;11.83;100.00
48968;BME280;46511;53.148;8.204;2023-04-08T09:17:57;102623.47;;;12.02;100.00
48968;BME280;46511;53.148;8.204;2023-04-08T09:20:28;102629.47;;;11.53;100.00
48968;BME280;46511;53.148;8.204;2023-04-08T09:23:00;102636.84;;;11.15;100.00
48968;BME280;46511;53.148;8.204;2023-04-08T09:25:32;102635.56;;;11.29;100.00
48968;BME280;46511;53.148;8.204;2023-04-08T09:28:03;102637.69;;;11.73;100.00
48968;BME280;46511;53.148;8.204;2023-04-08T09:30:35;102638.22;;;11.58;100.00
48968;BME280;46511;53.148;8.204;2023-04-08T09:33:06;102637.47;;;11.53;100.00
48968;BME280;46511;53.148;8.204;2023-04-08T09:35:38;102639.00;;;11.90;100.00
48968;BME280;46511;53.148;8.204;2023-04-08T09:38:09;102648.09;;;11.83;100.00
48968;BME280;46511;53.148;8.204;2023-04-08T09:40:40;102639.72;;;11.67;100.00
48968;BME280;46511;53.148;8.204;2023-04-08T09:43:14;102632.13;;;11.83;100.00
48968;BME280;46511;53.148;8.204;2023-04-08T09:45:48;102635.72;;;12.08;100.00
48968;BME280;46511;53.148;8.204;2023-04-08T09:48:21;102632.47;;;13.00;100.00
48968;BME280;46511;53.148;8.204;2023-04-08T09:50:57;102636.28;;;13.16;100.00
48968;BME280;46511;53.148;8.204;2023-04-08T09:53:33;102630.38;;;12.84;100.00
48968;BME280;46511;53.148;8.204;2023-04-08T09:56:09;102637.44;;;12.85;100.00
48968;BME280;46511;53.148;8.204;2023-04-08T09:58:50;102635.16;;;12.25;100.00
48968;BME280;46511;53.148;8.204;2023-04-08T10:01:31;102630.69;;;12.75;100.00
48968;BME280;46511;53.148;8.204;2023-04-08T10:04:07;102633.91;;;12.60;100.00
48968;BME280;46511;53.148;8.204;2023-04-08T10:06:42;102633.41;;;12.99;100.00
48968;BME280;46511;53.148;8.204;2023-04-08T10:09:13;102624.28;;;13.51;100.00
48968;BME280;46511;53.148;8.204;2023-04-08T10:11:45;102632.56;;;12.73;100.00
48968;BME280;46511;53.148;8.204;2023-04-08T10:14:16;102628.53;;;12.10;100.00
48968;BME280;46511;53.148;8.204;2023-04-08T10:16:48;102631.75;;;13.20;100.00
48968;BME280;46511;53.148;8.204;2023-04-08T10:19:35;102631.16;;;14.22;100.00
48968;BME280;46511;53.148;8.204;2023-04-08T10:25:30;102627.28;;;14.91;100.00
48968;BME280;46511;53.148;8.204;2023-04-08T10:31:02;102634.91;;;12.06;100.00
48968;BME280;46511;53.148;8.204;2023-04-08T10:33:34;102634.44;;;11.93;100.00
48968;BME280;46511;53.148;8.204;2023-04-08T10:38:39;102634.03;;;13.96;100.00
48968;BME280;46511;53.148;8.204;2023-04-08T10:41:17;102632.28;;;13.73;100.00
48968;BME280;46511;53.148;8.204;2023-04-08T10:43:54;102637.56;;;13.53;100.00
48968;BME280;46511;53.148;8.204;2023-04-08T10:46:28;102633.19;;;12.05;100.00
48968;BME280;46511;53.148;8.204;2023-04-08T10:49:08;102639.84;;;12.43;100.00
48968;BME280;46511;53.148;8.204;2023-04-08T10:51:39;102631.22;;;13.33;100.00
48968;BME280;46511;53.148;8.204;2023-04-08T10:54:13;102635.72;;;12.35;100.00
48968;BME280;46511;53.148;8.204;2023-04-08T10:56:49;102638.38;;;12.84;100.00
48968;BME280;46511;53.148;8.204;2023-04-08T10:59:27;102635.06;;;13.93;100.00
48968;BME280;46511;53.148;8.204;2023-04-08T11:01:59;102636.16;;;13.66;100.00
48968;BME280;46511;53.148;8.204;2023-04-08T11:04:32;102637.38;;;14.23;100.00
48968;BME280;46511;53.148;8.204;2023-04-08T11:07:04;102632.28;;;14.17;100.00
48968;BME280;46511;53.148;8.204;2023-04-08T11:09:36;102628.81;;;13.71;100.00
48968;BME280;46511;53.148;8.204;2023-04-08T11:12:07;102639.19;;;14.43;100.00
48968;BME280;46511;53.148;8.204;2023-04-08T11:14:38;102638.25;;;14.01;100.00
48968;BME280;46511;53.148;8.204;2023-04-08T11:17:11;102632.47;;;14.54;100.00
48968;BME280;46511;53.148;8.204;2023-04-08T11:19:45;102637.31;;;14.85;100.00
48968;BME280;46511;53.148;8.204;2023-04-08T11:22:17;102638.16;;;14.86;100.00
48968;BME280;46511;53.148;8.204;2023-04-08T11:24:48;102640.19;;;14.40;100.00
48968;BME280;46511;53.148;8.204;2023-04-08T11:27:19;102640.69;;;15.09;100.00
48968;BME280;46511;53.148;8.204;2023-04-08T11:29:54;102636.53;;;13.57;100.00
48968;BME280;46511;53.148;8.204;2023-04-08T11:32:26;102641.00;;;13.09;100.00
48968;BME280;46511;53.148;8.204;2023-04-08T11:34:59;102641.50;;;13.66;100.00
48968;BME280;46511;53.148;8.204;2023-04-08T11:37:39;102646.06;;;13.40;100.00
48968;BME280;46511;53.148;8.204;2023-04-08T11:40:11;102636.41;;;14.04;100.00
48968;BME280;46511;53.148;8.204;2023-04-08T11:42:43;102631.09;;;14.44;100.00
48968;BME280;46511;53.148;8.204;2023-04-08T11:45:15;102631.72;;;15.10;100.00
48968;BME280;46511;53.148;8.204;2023-04-08T11:47:48;102638.53;;;15.18;100.00
48968;BME280;46511;53.148;8.204;2023-04-08T11:50:23;102643.75;;;14.19;100.00
48968;BME280;46511;53.148;8.204;2023-04-08T11:52:55;102632.56;;;13.67;100.00
48968;BME280;46511;53.148;8.204;2023-04-08T11:55:28;102644.13;;;14.32;100.00
48968;BME280;46511;53.148;8.204;2023-04-08T11:58:01;102644.63;;;13.77;100.00
48968;BME280;46511;53.148;8.204;2023-04-08T12:00:34;102651.69;;;13.09;100.00
48968;BME280;46511;53.148;8.204;2023-04-08T12:03:07;102642.09;;;13.51;100.00
48968;BME280;46511;53.148;8.204;2023-04-08T12:05:38;102646.16;;;12.91;100.00
48968;BME280;46511;53.148;8.204;2023-04-08T12:08:09;102636.22;;;13.86;100.00
48968;BME280;46511;53.148;8.204;2023-04-08T12:10:40;102639.72;;;14.09;100.00
48968;BME280;46511;53.148;8.204;2023-04-08T12:13:12;102637.75;;;13.48;100.00
48968;BME280;46511;53.148;8.204;2023-04-08T12:15:43;102629.75;;;14.34;100.00
48968;BME280;46511;53.148;8.204;2023-04-08T12:18:14;102633.19;;;14.58;100.00
48968;BME280;46511;53.148;8.204;2023-04-08T12:20:46;102631.13;;;15.04;100.00
48968;BME280;46511;53.148;8.204;2023-04-08T12:23:17;102641.00;;;13.78;100.00
48968;BME280;46511;53.148;8.204;2023-04-08T12:25:48;102636.59;;;14.82;100.00
48968;BME280;46511;53.148;8.204;2023-04-08T12:28:20;102626.84;;;13.76;100.00
48968;BME280;46511;53.148;8.204;2023-04-08T12:30:51;102639.25;;;15.40;100.00
48968;BME280;46511;53.148;8.204;2023-04-08T12:33:23;102632.16;;;15.77;100.00
48968;BME280;46511;53.148;8.204;2023-04-08T12:35:54;102632.38;;;16.43;96.48
48968;BME280;46511;53.148;8.204;2023-04-08T12:38:25;102631.50;;;15.71;94.73
48968;BME280;46511;53.148;8.204;2023-04-08T12:40:57;102633.59;;;15.84;98.49
48968;BME280;46511;53.148;8.204;2023-04-08T12:43:28;102641.97;;;16.47;92.71
48968;BME280;46511;53.148;8.204;2023-04-08T12:45:59;102634.00;;;17.13;88.54
48968;BME280;46511;53.148;8.204;2023-04-08T12:48:31;102635.75;;;16.29;89.00
48968;BME280;46511;53.148;8.204;2023-04-08T12:51:03;102641.84;;;15.23;96.57
48968;BME280;46511;53.148;8.204;2023-04-08T12:53:34;102640.56;;;16.05;95.60
48968;BME280;46511;53.148;8.204;2023-04-08T12:56:05;102638.44;;;16.12;95.05
48968;BME280;46511;53.148;8.204;2023-04-08T12:58:37;102630.91;;;15.84;94.99
48968;BME280;46511;53.148;8.204;2023-04-08T13:01:08;102628.38;;;15.62;97.88
48968;BME280;46511;53.148;8.204;2023-04-08T13:03:39;102628.94;;;15.87;95.71
48968;BME280;46511;53.148;8.204;2023-04-08T13:06:12;102631.88;;;16.17;90.72
48968;BME280;46511;53.148;8.204;2023-04-08T13:08:38;102629.78;;;15.88;90.49
48968;BME280;46511;53.148;8.204;2023-04-08T13:11:09;102623.69;;;16.38;91.84
48968;BME280;46511;53.148;8.204;2023-04-08T13:13:41;102628.91;;;16.41;92.50
48968;BME280;46511;53.148;8.204;2023-04-08T13:16:12;102628.97;;;17.07;88.16
48968;BME280;46511;53.148;8.204;2023-04-08T13:18:45;102633.13;;;16.62;87.88
48968;BME280;46511;53.148;8.204;2023-04-08T13:21:16;102635.38;;;16.71;90.45
48968;BME280;46511;53.148;8.204;2023-04-08T13:23:48;102630.88;;;16.72;87.95
48968;BME280;46511;53.148;8.204;2023-04-08T13:26:19;102626.56;;;17.18;86.54